createdAt,value
2018-11-27T00:01:46.854Z,26.10
2018-11-27T00:04:14.139Z,26.53
2018-11-27T00:06:41.928Z,27.70
2018-11-27T00:09:09.283Z,25.77
2018-11-27T00:11:36.564Z,25.43
2018-11-27T00:14:03.779Z,25.40
2018-11-27T00:16:31.011Z,24.63
2018-11-27T00:18:58.235Z,22.60
2018-11-27T00:21:25.800Z,26.73
2018-11-27T00:23:53.961Z,23.80
2018-11-27T00:26:22.294Z,26.00
2018-11-27T00:28:50.351Z,26.90
2018-11-27T00:31:18.015Z,21.60
2018-11-27T00:33:45.692Z,24.40
2018-11-27T00:36:12.925Z,27.00
2018-11-27T00:38:40.120Z,24.70
2018-11-27T00:41:07.328Z,26.13
2018-11-27T00:43:34.609Z,25.73
2018-11-27T00:46:01.774Z,24.37
2018-11-27T00:48:28.997Z,26.50
2018-11-27T00:50:56.139Z,33.83
2018-11-27T00:53:23.250Z,33.10
2018-11-27T00:55:50.544Z,25.47
2018-11-27T00:58:17.819Z,22.43
2018-11-27T01:00:45.087Z,27.90
2018-11-27T01:03:12.232Z,22.63
2018-11-27T01:05:39.463Z,24.93
2018-11-27T01:08:06.673Z,24.93
2018-11-27T01:10:33.913Z,25.47
2018-11-27T01:13:01.050Z,23.60
2018-11-27T01:15:28.230Z,31.70
2018-11-27T01:17:56.647Z,25.43
2018-11-27T01:20:24.182Z,26.67
2018-11-27T01:22:51.390Z,28.13
2018-11-27T01:25:18.570Z,26.13
2018-11-27T01:27:45.886Z,26.80
2018-11-27T01:30:16.982Z,26.83
2018-11-27T01:32:44.650Z,24.20
2018-11-27T01:35:16.175Z,28.20
2018-11-27T01:37:43.630Z,24.90
2018-11-27T01:40:12.185Z,21.40
2018-11-27T01:42:39.459Z,26.87
2018-11-27T01:45:10.600Z,27.63
2018-11-27T01:47:37.868Z,26.67
2018-11-27T01:50:07.718Z,30.53
2018-11-27T01:52:35.038Z,26.13
2018-11-27T01:55:02.223Z,27.83
2018-11-27T01:57:29.657Z,26.40
2018-11-27T02:00:02.285Z,28.50
2018-11-27T02:02:29.544Z,28.70
2018-11-27T02:04:56.821Z,27.83
2018-11-27T02:07:24.181Z,25.40
2018-11-27T02:09:51.513Z,24.33
2018-11-27T02:12:19.776Z,27.20
2018-11-27T02:14:47.366Z,28.60
2018-11-27T02:17:14.614Z,26.33
2018-11-27T02:19:41.967Z,25.57
2018-11-27T02:22:10.368Z,23.20
2018-11-27T02:24:37.696Z,25.97
2018-11-27T02:27:05.120Z,28.00
2018-11-27T02:29:32.645Z,30.23
2018-11-27T02:32:00.025Z,24.77
2018-11-27T02:34:27.366Z,27.90
2018-11-27T02:36:54.725Z,35.07
2018-11-27T02:39:22.038Z,34.63
2018-11-27T02:41:49.446Z,30.10
2018-11-27T02:44:16.600Z,24.10
2018-11-27T02:46:43.892Z,29.27
2018-11-27T02:49:11.115Z,32.40
2018-11-27T02:51:38.270Z,29.67
2018-11-27T02:54:05.430Z,33.13
2018-11-27T02:56:32.672Z,30.40
2018-11-27T02:58:59.829Z,27.30
2018-11-27T03:01:27.184Z,34.37
2018-11-27T03:04:03.180Z,27.63
2018-11-27T03:06:30.409Z,27.83
2018-11-27T03:08:57.579Z,29.10
2018-11-27T03:11:24.824Z,27.23
2018-11-27T03:13:55.234Z,29.97
2018-11-27T03:16:22.374Z,30.77
2018-11-27T03:18:50.536Z,30.33
2018-11-27T03:21:17.691Z,29.93
2018-11-27T03:23:45.082Z,27.60
2018-11-27T03:26:13.143Z,31.87
2018-11-27T03:28:40.201Z,25.80
2018-11-27T03:31:07.319Z,29.60
2018-11-27T03:33:34.674Z,29.07
2018-11-27T03:36:01.840Z,32.80
2018-11-27T03:38:28.985Z,28.90
2018-11-27T03:40:56.205Z,30.40
2018-11-27T03:43:23.364Z,27.27
2018-11-27T03:45:50.546Z,25.00
2018-11-27T03:48:17.705Z,32.33
2018-11-27T03:50:44.876Z,26.43
2018-11-27T03:53:12.047Z,24.80
2018-11-27T03:55:39.250Z,25.30
2018-11-27T03:58:06.421Z,26.63
2018-11-27T04:00:33.754Z,25.03
2018-11-27T04:03:03.384Z,27.60
2018-11-27T04:05:36.439Z,27.50
2018-11-27T04:08:04.404Z,30.20
2018-11-27T04:10:31.577Z,31.30
2018-11-27T04:12:58.791Z,28.87
2018-11-27T04:15:25.976Z,31.87
2018-11-27T04:17:53.378Z,27.83
2018-11-27T04:20:20.665Z,27.30
2018-11-27T04:22:47.815Z,28.37
2018-11-27T04:25:15.903Z,27.73
2018-11-27T04:27:44.673Z,31.70
2018-11-27T04:30:12.758Z,32.43
2018-11-27T04:32:40.014Z,23.07
2018-11-27T04:35:08.013Z,30.93
2018-11-27T04:37:35.329Z,31.23
2018-11-27T04:40:02.965Z,27.93
2018-11-27T04:42:30.255Z,31.37
2018-11-27T04:44:57.932Z,31.33
2018-11-27T04:47:25.225Z,33.77
2018-11-27T04:49:52.553Z,32.83
2018-11-27T04:52:19.803Z,30.37
2018-11-27T04:54:47.202Z,27.10
2018-11-27T04:57:14.407Z,34.57
2018-11-27T04:59:41.572Z,25.60
2018-11-27T05:02:16.525Z,31.83
2018-11-27T05:04:43.751Z,31.87
2018-11-27T05:07:11.002Z,30.83
2018-11-27T05:09:38.984Z,31.00
2018-11-27T05:12:06.247Z,37.13
2018-11-27T05:14:33.490Z,36.73
2018-11-27T05:17:00.802Z,29.70
2018-11-27T05:19:28.407Z,32.20
2018-11-27T05:21:55.718Z,31.57
2018-11-27T05:24:22.916Z,33.73
2018-11-27T05:26:50.385Z,31.83
2018-11-27T05:29:17.738Z,38.00
2018-11-27T05:31:44.958Z,33.20
2018-11-27T05:34:12.183Z,30.30
2018-11-27T05:36:39.740Z,33.10
2018-11-27T05:39:08.111Z,27.63
2018-11-27T05:41:35.344Z,33.33
2018-11-27T05:44:03.480Z,33.13
2018-11-27T05:46:30.748Z,34.40
2018-11-27T05:48:58.039Z,32.53
2018-11-27T05:51:25.251Z,27.03
2018-11-27T05:53:52.433Z,31.00
2018-11-27T05:56:19.615Z,32.90
2018-11-27T05:58:46.827Z,28.97
2018-11-27T06:01:14.075Z,32.73
2018-11-27T06:03:42.308Z,31.03
2018-11-27T06:06:09.555Z,32.73
2018-11-27T06:08:36.689Z,30.47
2018-11-27T06:11:04.921Z,35.07
2018-11-27T06:13:33.190Z,29.37
2018-11-27T06:16:00.560Z,31.40
2018-11-27T06:18:27.907Z,33.80
2018-11-27T06:20:55.256Z,30.10
2018-11-27T06:23:22.515Z,28.73
2018-11-27T06:25:49.774Z,29.47
2018-11-27T06:28:16.963Z,30.47
2018-11-27T06:30:44.323Z,32.07
2018-11-27T06:33:11.605Z,28.30
2018-11-27T06:35:40.412Z,34.03
2018-11-27T06:38:08.970Z,32.30
2018-11-27T06:40:37.451Z,40.07
2018-11-27T06:43:06.736Z,32.73
2018-11-27T06:45:34.425Z,29.90
2018-11-27T06:48:01.818Z,35.67
2018-11-27T06:50:31.172Z,40.10
2018-11-27T06:52:58.361Z,33.10
2018-11-27T06:55:25.745Z,29.07
2018-11-27T06:57:52.956Z,27.60
2018-11-27T07:00:21.479Z,34.63
2018-11-27T07:02:48.719Z,31.07
2018-11-27T07:05:16.313Z,39.37
2018-11-27T07:07:43.525Z,31.50
2018-11-27T07:10:26.894Z,31.67
2018-11-27T07:13:15.352Z,28.10
2018-11-27T07:15:42.753Z,33.47
2018-11-27T07:18:10.403Z,39.80
2018-11-27T07:20:37.803Z,31.73
2018-11-27T07:23:05.881Z,29.77
2018-11-27T07:25:33.122Z,29.60
2018-11-27T07:28:00.509Z,34.50
2018-11-27T07:30:27.818Z,35.43
2018-11-27T07:33:02.021Z,39.50
2018-11-27T07:35:30.501Z,36.53
2018-11-27T07:37:57.758Z,31.77
2018-11-27T07:40:26.652Z,29.87
2018-11-27T07:42:59.828Z,32.80
2018-11-27T07:45:27.203Z,34.93
2018-11-27T07:47:54.628Z,44.97
2018-11-27T07:50:23.529Z,33.20
2018-11-27T07:52:51.070Z,35.47
2018-11-27T07:55:20.363Z,32.23
2018-11-27T07:57:48.053Z,24.70
2018-11-27T08:00:17.791Z,30.80
2018-11-27T08:02:46.369Z,36.70
2018-11-27T08:05:15.657Z,30.20
2018-11-27T08:07:44.856Z,35.00
2018-11-27T08:10:18.295Z,26.33
2018-11-27T08:12:47.191Z,29.50
2018-11-27T08:15:16.787Z,32.30
2018-11-27T08:17:44.125Z,30.33
2018-11-27T08:20:15.137Z,30.43
2018-11-27T08:22:43.439Z,25.93
2018-11-27T08:25:18.893Z,34.70
2018-11-27T08:27:46.255Z,34.67
2018-11-27T08:30:18.844Z,29.40
2018-11-27T08:34:15.620Z,34.20
2018-11-27T08:36:43.615Z,29.50
2018-11-27T08:39:12.401Z,36.07
2018-11-27T08:41:41.114Z,33.73
2018-11-27T08:44:08.565Z,30.93
2018-11-27T08:46:35.875Z,28.13
2018-11-27T08:49:04.001Z,26.53
2018-11-27T08:51:31.285Z,29.20
2018-11-27T08:53:58.583Z,29.90
2018-11-27T08:56:25.848Z,31.20
2018-11-27T08:58:53.031Z,29.97
2018-11-27T09:01:20.487Z,26.33
2018-11-27T09:03:47.908Z,26.93
2018-11-27T09:06:15.465Z,30.13
2018-11-27T09:08:43.998Z,30.70
2018-11-27T09:11:10.187Z,31.93
2018-11-27T09:13:37.490Z,29.73
2018-11-27T09:16:05.838Z,29.60
2018-11-27T09:18:33.103Z,37.17
2018-11-27T09:21:00.425Z,31.97
2018-11-27T09:23:27.715Z,28.47
2018-11-27T09:25:55.477Z,32.80
2018-11-27T09:28:23.499Z,32.80
2018-11-27T09:30:56.857Z,32.30
2018-11-27T09:33:24.598Z,27.80
2018-11-27T09:35:53.075Z,29.00
2018-11-27T09:38:24.941Z,26.63
2018-11-27T09:40:53.840Z,28.37
2018-11-27T09:43:21.503Z,31.80
2018-11-27T09:45:49.228Z,34.20
2018-11-27T09:48:18.266Z,27.20
2018-11-27T09:50:45.536Z,34.90
2018-11-27T09:53:14.152Z,35.87
2018-11-27T09:55:42.551Z,30.07
2018-11-27T09:58:11.440Z,30.40
2018-11-27T10:00:38.807Z,31.23
2018-11-27T10:03:07.885Z,35.87
2018-11-27T10:05:35.580Z,33.83
2018-11-27T10:08:05.425Z,33.77
2018-11-27T10:10:34.796Z,32.17
2018-11-27T10:13:02.083Z,34.83
2018-11-27T10:15:29.747Z,33.53
2018-11-27T10:18:01.565Z,33.10
2018-11-27T10:20:34.744Z,34.00
2018-11-27T10:23:02.093Z,35.50
2018-11-27T10:25:29.541Z,30.77
2018-11-27T10:27:56.863Z,30.47
2018-11-27T10:30:25.435Z,36.67
2018-11-27T10:32:55.018Z,30.17
2018-11-27T10:35:27.405Z,30.27
2018-11-27T10:37:54.880Z,34.70
2018-11-27T10:40:22.376Z,33.97
2018-11-27T10:42:52.347Z,35.10
2018-11-27T10:45:23.556Z,35.37
2018-11-27T10:47:57.089Z,33.57
2018-11-27T10:50:30.736Z,34.13
2018-11-27T10:52:58.017Z,35.83
2018-11-27T10:55:26.040Z,33.13
2018-11-27T10:57:53.276Z,37.77
2018-11-27T11:00:35.110Z,35.63
2018-11-27T11:03:13.565Z,31.50
2018-11-27T11:05:41.641Z,37.13
2018-11-27T11:08:13.632Z,32.00
2018-11-27T11:10:41.141Z,39.27
2018-11-27T11:13:10.990Z,34.37
2018-11-27T11:15:48.608Z,32.60
2018-11-27T11:18:21.288Z,36.97
2018-11-27T11:20:55.599Z,37.10
2018-11-27T11:23:24.843Z,33.80
2018-11-27T11:25:57.392Z,33.53
2018-11-27T11:28:27.743Z,35.27
2018-11-27T11:30:56.939Z,34.60
2018-11-27T11:33:24.372Z,38.23
2018-11-27T11:35:51.704Z,33.60
2018-11-27T11:38:18.978Z,33.60
2018-11-27T11:40:46.201Z,34.23
2018-11-27T11:43:14.065Z,39.80
2018-11-27T11:45:41.302Z,34.90
2018-11-27T11:48:09.059Z,34.90
2018-11-27T11:50:36.336Z,35.73
2018-11-27T11:53:07.098Z,36.23
2018-11-27T11:55:34.468Z,33.73
2018-11-27T11:58:02.043Z,34.13
2018-11-27T12:00:31.467Z,35.23
2018-11-27T12:02:58.770Z,33.00
2018-11-27T12:05:27.854Z,33.80
2018-11-27T12:07:55.063Z,36.60
2018-11-27T12:10:22.272Z,33.90
2018-11-27T12:12:51.514Z,34.30
2018-11-27T12:15:19.073Z,30.77
2018-11-27T12:17:47.007Z,34.23
2018-11-27T12:20:15.851Z,36.77
2018-11-27T12:22:44.806Z,40.13
2018-11-27T12:25:12.798Z,33.47
2018-11-27T12:27:40.316Z,38.03
2018-11-27T12:30:26.490Z,36.00
2018-11-27T12:32:53.802Z,42.50
2018-11-27T12:35:22.026Z,35.27
2018-11-27T12:37:51.463Z,32.83
2018-11-27T12:40:21.690Z,39.00
2018-11-27T12:42:49.251Z,39.53
2018-11-27T12:45:24.772Z,35.07
2018-11-27T12:47:52.879Z,34.80
2018-11-27T12:50:21.526Z,35.80
2018-11-27T12:52:48.852Z,39.80
2018-11-27T12:55:18.324Z,38.30
2018-11-27T12:57:46.266Z,42.63
2018-11-27T13:00:18.708Z,37.13
2018-11-27T13:02:46.743Z,39.90
2018-11-27T13:05:15.408Z,39.53
2018-11-27T13:07:42.795Z,35.13
2018-11-27T13:10:15.446Z,33.10
2018-11-27T13:12:43.285Z,43.80
2018-11-27T13:15:11.855Z,39.77
2018-11-27T13:17:39.166Z,35.20
2018-11-27T13:20:08.411Z,34.73
2018-11-27T13:22:35.650Z,35.63
2018-11-27T13:25:03.187Z,36.30
2018-11-27T13:27:30.544Z,34.93
2018-11-27T13:29:57.831Z,39.93
2018-11-27T13:32:25.005Z,35.93
2018-11-27T13:34:52.634Z,39.00
2018-11-27T13:37:19.807Z,38.10
2018-11-27T13:39:49.220Z,37.30
2018-11-27T13:42:16.600Z,38.73
2018-11-27T13:44:43.804Z,37.07
2018-11-27T13:47:11.077Z,38.63
2018-11-27T13:49:39.167Z,41.47
2018-11-27T13:52:07.474Z,39.07
2018-11-27T13:54:34.724Z,40.23
2018-11-27T13:57:02.113Z,36.97
2018-11-27T13:59:29.405Z,39.97
2018-11-27T14:01:56.680Z,33.10
2018-11-27T14:04:24.589Z,47.10
2018-11-27T14:06:53.073Z,35.03
2018-11-27T14:09:20.363Z,35.60
2018-11-27T14:11:49.318Z,42.07
2018-11-27T14:14:17.482Z,39.67
2018-11-27T14:16:44.794Z,34.57
2018-11-27T14:19:13.921Z,41.27
2018-11-27T14:21:41.137Z,42.57
2018-11-27T14:24:08.308Z,39.83
2018-11-27T14:26:36.184Z,37.03
2018-11-27T14:29:03.639Z,34.70
2018-11-27T14:31:31.962Z,35.17
2018-11-27T14:33:59.193Z,39.17
2018-11-27T14:36:26.417Z,41.67
2018-11-27T14:38:53.684Z,40.70
2018-11-27T14:41:20.898Z,37.83
2018-11-27T14:43:48.075Z,39.00
2018-11-27T14:46:15.277Z,36.57
2018-11-27T14:48:42.548Z,40.70
2018-11-27T14:51:09.882Z,36.90
2018-11-27T14:53:37.033Z,40.77
2018-11-27T14:56:04.747Z,31.30
2018-11-27T14:58:32.082Z,39.17
2018-11-27T15:00:59.330Z,36.93
2018-11-27T15:03:26.887Z,40.90
2018-11-27T15:05:54.482Z,40.00
2018-11-27T15:08:21.856Z,37.37
2018-11-27T15:10:49.216Z,34.53
2018-11-27T15:13:16.599Z,36.07
2018-11-27T15:15:44.483Z,38.80
2018-11-27T15:18:11.896Z,37.93
2018-11-27T15:20:39.144Z,36.27
2018-11-27T15:23:06.536Z,35.57
2018-11-27T15:25:33.702Z,37.57
2018-11-27T15:28:01.036Z,39.00
2018-11-27T15:30:33.963Z,36.30
2018-11-27T15:33:01.367Z,35.77
2018-11-27T15:35:28.711Z,41.43
2018-11-27T15:37:56.031Z,37.57
2018-11-27T15:40:25.059Z,34.00
2018-11-27T15:42:52.512Z,38.13
2018-11-27T15:45:23.318Z,38.80
2018-11-27T15:47:50.597Z,34.83
2018-11-27T15:50:18.024Z,34.97
2018-11-27T15:52:47.361Z,38.00
2018-11-27T15:55:20.094Z,36.00
2018-11-27T15:57:49.575Z,31.63
2018-11-27T16:00:17.458Z,33.30
2018-11-27T16:02:46.089Z,36.70
2018-11-27T16:05:14.057Z,32.80
2018-11-27T16:07:41.554Z,34.40
2018-11-27T16:10:13.386Z,28.47
2018-11-27T16:12:40.957Z,33.97
2018-11-27T16:15:12.179Z,41.93
2018-11-27T16:17:39.592Z,36.90
2018-11-27T16:20:10.586Z,34.73
2018-11-27T16:22:37.989Z,33.60
2018-11-27T16:25:07.577Z,36.10
2018-11-27T16:27:34.850Z,40.90
2018-11-27T16:30:02.202Z,31.63
2018-11-27T16:32:29.416Z,35.67
2018-11-27T16:34:57.160Z,31.50
2018-11-27T16:37:24.580Z,36.70
2018-11-27T16:39:53.279Z,39.30
2018-11-27T16:42:20.908Z,32.77
2018-11-27T16:44:48.596Z,34.17
2018-11-27T16:47:16.536Z,34.70
2018-11-27T16:49:43.854Z,34.50
2018-11-27T16:52:11.319Z,42.40
2018-11-27T16:54:39.795Z,32.80
2018-11-27T16:57:07.933Z,34.40
2018-11-27T16:59:35.484Z,30.17
2018-11-27T17:02:02.904Z,37.90
2018-11-27T17:04:30.158Z,35.23
2018-11-27T17:06:58.407Z,30.63
2018-11-27T17:09:25.886Z,30.83
2018-11-27T17:11:54.309Z,32.93
2018-11-27T17:14:21.548Z,28.77
2018-11-27T17:16:48.828Z,34.20
2018-11-27T17:19:16.297Z,29.00
2018-11-27T17:21:43.968Z,29.40
2018-11-27T17:24:11.421Z,33.13
2018-11-27T17:26:38.787Z,31.13
2018-11-27T17:29:07.318Z,34.90
2018-11-27T17:31:34.700Z,38.17
2018-11-27T17:34:08.154Z,42.17
2018-11-27T17:36:36.813Z,32.13
2018-11-27T17:39:08.578Z,33.00
2018-11-27T17:41:35.985Z,31.20
2018-11-27T17:44:03.622Z,37.53
2018-11-27T17:46:32.261Z,35.40
2018-11-27T17:48:59.605Z,37.27
2018-11-27T17:51:27.178Z,32.53
2018-11-27T17:53:54.860Z,31.47
2018-11-27T17:56:22.253Z,31.83
2018-11-27T17:58:49.631Z,30.43
2018-11-27T18:01:16.968Z,31.63
2018-11-27T18:03:44.308Z,33.37
2018-11-27T18:06:11.701Z,34.20
2018-11-27T18:08:39.344Z,34.03
2018-11-27T18:11:06.837Z,32.17
2018-11-27T18:13:35.041Z,31.57
2018-11-27T18:16:02.952Z,34.40
2018-11-27T18:18:30.563Z,31.17
2018-11-27T18:20:58.210Z,35.70
2018-11-27T18:23:25.777Z,32.23
2018-11-27T18:25:56.997Z,32.93
2018-11-27T18:28:24.477Z,33.73
2018-11-27T18:30:52.556Z,32.63
2018-11-27T18:33:19.950Z,35.00
2018-11-27T18:35:47.450Z,28.47
2018-11-27T18:38:14.995Z,34.93
2018-11-27T18:40:42.396Z,35.57
2018-11-27T18:43:10.034Z,33.83
2018-11-27T18:45:39.414Z,33.87
2018-11-27T18:48:06.791Z,31.00
2018-11-27T18:50:34.931Z,33.67
2018-11-27T18:53:02.457Z,31.20
2018-11-27T18:55:30.025Z,31.50
2018-11-27T18:57:58.968Z,30.33
2018-11-27T19:00:27.508Z,33.67
2018-11-27T19:02:55.830Z,37.87
2018-11-27T19:05:23.234Z,35.37
2018-11-27T19:07:50.603Z,33.63
2018-11-27T19:10:20.469Z,31.40
2018-11-27T19:12:48.256Z,35.23
2018-11-27T19:15:19.092Z,31.90
2018-11-27T19:17:48.220Z,32.50
2018-11-27T19:20:15.520Z,32.87
2018-11-27T19:22:43.153Z,36.37
2018-11-27T19:25:11.844Z,35.93
2018-11-27T19:27:39.357Z,30.70
2018-11-27T19:30:17.055Z,33.43
2018-11-27T19:32:44.436Z,34.20
2018-11-27T19:35:15.430Z,34.53
2018-11-27T19:37:43.334Z,35.00
2018-11-27T19:40:14.167Z,36.57
2018-11-27T19:42:41.456Z,37.47
2018-11-27T19:45:19.399Z,36.17
2018-11-27T19:47:47.276Z,31.50
2018-11-27T19:50:14.832Z,32.70
2018-11-27T19:52:43.296Z,32.97
2018-11-27T19:55:14.725Z,36.10
2018-11-27T19:57:42.243Z,31.97
2018-11-27T20:00:14.103Z,34.93
2018-11-27T20:02:41.436Z,37.93
2018-11-27T20:05:13.053Z,35.33
2018-11-27T20:07:44.672Z,34.70
2018-11-27T20:10:13.371Z,36.13
2018-11-27T20:12:40.804Z,37.40
2018-11-27T20:15:20.255Z,34.43
2018-11-27T20:17:48.497Z,35.33
2018-11-27T20:20:20.973Z,39.60
2018-11-27T20:22:48.594Z,40.50
2018-11-27T20:25:17.256Z,34.53
2018-11-27T20:27:45.338Z,34.90
2018-11-27T20:30:16.963Z,39.50
2018-11-27T20:32:47.839Z,38.77
2018-11-27T20:35:15.293Z,39.03
2018-11-27T20:37:43.544Z,36.00
2018-11-27T20:40:12.260Z,34.43
2018-11-27T20:44:05.422Z,44.10
2018-11-27T20:46:32.875Z,36.60
2018-11-27T20:49:00.159Z,40.70
2018-11-27T20:51:27.499Z,33.73
2018-11-27T20:53:55.217Z,35.43
2018-11-27T20:56:22.809Z,34.93
2018-11-27T20:58:51.306Z,33.60
2018-11-27T21:01:18.657Z,38.33
2018-11-27T21:03:46.187Z,37.07
2018-11-27T21:06:13.644Z,45.73
2018-11-27T21:08:40.951Z,44.43
2018-11-27T21:11:08.565Z,39.30
2018-11-27T21:13:36.089Z,38.87
2018-11-27T21:16:03.593Z,42.93
2018-11-27T21:18:31.157Z,43.40
2018-11-27T21:20:58.966Z,37.67
2018-11-27T21:23:26.445Z,43.20
2018-11-27T21:25:56.521Z,41.77
2018-11-27T21:28:23.948Z,36.77
2018-11-27T21:30:51.671Z,34.30
2018-11-27T21:33:18.977Z,42.53
2018-11-27T21:35:46.267Z,36.73
2018-11-27T21:38:13.689Z,37.10
2018-11-27T21:40:41.081Z,43.63
2018-11-27T21:43:08.438Z,45.73
2018-11-27T21:45:36.460Z,40.87
2018-11-27T21:48:05.307Z,35.70
2018-11-27T21:50:39.477Z,42.70
2018-11-27T21:53:07.502Z,37.37
2018-11-27T21:55:37.504Z,39.43
2018-11-27T21:58:05.740Z,41.53
2018-11-27T22:00:33.150Z,40.83
2018-11-27T22:03:01.471Z,38.17
2018-11-27T22:05:29.995Z,48.40
2018-11-27T22:07:57.387Z,37.83
2018-11-27T22:10:26.093Z,43.17
2018-11-27T22:12:54.823Z,42.47
2018-11-27T22:15:30.106Z,46.77
2018-11-27T22:17:58.468Z,42.70
2018-11-27T22:20:26.017Z,43.13
2018-11-27T22:22:53.890Z,44.40
2018-11-27T22:25:22.815Z,35.87
2018-11-27T22:27:50.194Z,41.53
2018-11-27T22:30:19.493Z,40.10
2018-11-27T22:32:50.373Z,47.33
2018-11-27T22:35:18.116Z,49.07
2018-11-27T22:37:51.142Z,39.73
2018-11-27T22:40:20.523Z,38.77
2018-11-27T22:42:49.009Z,39.07
2018-11-27T22:45:18.775Z,46.13
2018-11-27T22:47:47.347Z,43.63
2018-11-27T22:52:55.242Z,51.50
2018-11-27T22:55:23.248Z,45.37
2018-11-27T22:57:51.339Z,38.27
2018-11-27T23:00:26.470Z,41.53
2018-11-27T23:02:53.999Z,40.33
2018-11-27T23:05:22.510Z,34.87
2018-11-27T23:07:53.066Z,36.67
2018-11-27T23:10:21.853Z,39.70
2018-11-27T23:12:49.164Z,39.77
2018-11-27T23:15:19.031Z,35.50
2018-11-27T23:17:46.974Z,41.43
2018-11-27T23:20:17.032Z,39.70
2018-11-27T23:22:44.423Z,39.97
2018-11-27T23:25:12.624Z,39.13
2018-11-27T23:27:39.929Z,44.00
2018-11-27T23:30:11.696Z,41.17
2018-11-27T23:32:38.891Z,43.17
2018-11-27T23:35:06.350Z,42.27
2018-11-27T23:37:33.645Z,46.73
2018-11-27T23:40:00.866Z,41.30
2018-11-27T23:42:28.082Z,46.00
2018-11-27T23:44:55.306Z,39.70
2018-11-27T23:47:22.511Z,38.53
2018-11-27T23:49:49.654Z,39.47
2018-11-27T23:52:18.017Z,38.90
2018-11-27T23:54:45.466Z,36.30
2018-11-27T23:57:12.745Z,39.70
2018-11-27T23:59:39.875Z,39.80
